createdAt,value
2023-05-17T00:01:11.544Z,1013.12
2023-05-17T00:04:21.906Z,1013.14
2023-05-17T00:07:30.854Z,1013.08
2023-05-17T00:10:39.751Z,1013.09
2023-05-17T00:13:49.210Z,1013.09
2023-05-17T00:16:57.920Z,1013.18
2023-05-17T00:20:06.013Z,1013.17
2023-05-17T00:23:16.565Z,1013.18
2023-05-17T00:26:25.109Z,1013.22
2023-05-17T00:29:34.500Z,1013.23
2023-05-17T00:32:44.115Z,1013.18
2023-05-17T00:35:45.634Z,1013.17
2023-05-17T00:38:54.013Z,1013.14
2023-05-17T00:42:04.479Z,1013.13
2023-05-17T00:45:13.279Z,1013.16
2023-05-17T00:48:21.851Z,1013.04
2023-05-17T00:51:30.301Z,1013.13
2023-05-17T00:54:40.390Z,1013.14
2023-05-17T00:57:50.040Z,1013.13
2023-05-17T01:00:57.972Z,1013.17
2023-05-17T01:04:09.230Z,1013.23
2023-05-17T01:07:08.410Z,1013.21
2023-05-17T01:10:16.713Z,1013.25
2023-05-17T01:13:26.719Z,1013.23
2023-05-17T01:16:35.746Z,1013.24
2023-05-17T01:19:44.328Z,1013.14
2023-05-17T01:22:54.681Z,1013.16
2023-05-17T01:26:03.645Z,1013.16
2023-05-17T01:29:12.654Z,1013.17
2023-05-17T01:32:21.181Z,1013.25
2023-05-17T01:35:31.087Z,1013.22
2023-05-17T01:38:39.685Z,1013.21
2023-05-17T01:41:47.995Z,1013.18
2023-05-17T01:44:58.133Z,1013.21
2023-05-17T01:48:07.591Z,1013.25
2023-05-17T01:51:16.321Z,1013.26
2023-05-17T01:54:26.051Z,1013.28
2023-05-17T01:57:35.178Z,1013.33
2023-05-17T02:00:43.279Z,1013.41
2023-05-17T02:03:53.581Z,1013.52
2023-05-17T02:07:02.063Z,1013.40
2023-05-17T02:10:11.194Z,1013.42
2023-05-17T02:13:19.646Z,1013.47
2023-05-17T02:16:30.251Z,1013.52
2023-05-17T02:19:39.005Z,1013.49
2023-05-17T02:22:47.800Z,1013.56
2023-05-17T02:25:57.723Z,1013.50
2023-05-17T02:29:06.257Z,1013.45
2023-05-17T02:32:15.164Z,1013.56
2023-05-17T02:35:25.480Z,1013.52
2023-05-17T02:38:34.256Z,1013.52
2023-05-17T02:41:42.172Z,1013.55
2023-05-17T02:44:52.570Z,1013.58
2023-05-17T02:48:01.194Z,1013.62
2023-05-17T02:51:10.054Z,1013.64
2023-05-17T02:54:19.852Z,1013.53
2023-05-17T02:57:28.573Z,1013.54
2023-05-17T03:00:32.725Z,1013.53
2023-05-17T03:03:40.958Z,1013.62
2023-05-17T03:06:50.278Z,1013.68
2023-05-17T03:09:58.083Z,1013.66
2023-05-17T03:13:06.487Z,1013.65
2023-05-17T03:16:15.489Z,1013.69
2023-05-17T03:19:23.019Z,1013.68
2023-05-17T03:22:34.463Z,1013.75
2023-05-17T03:25:33.072Z,1013.76
2023-05-17T03:28:40.372Z,1013.73
2023-05-17T03:31:48.344Z,1013.85
2023-05-17T03:34:57.738Z,1013.87
2023-05-17T03:38:06.163Z,1013.89
2023-05-17T03:41:13.955Z,1013.91
2023-05-17T03:44:21.230Z,1014.02
2023-05-17T03:47:30.577Z,1014.05
2023-05-17T03:50:38.484Z,1014.02
2023-05-17T03:53:46.667Z,1014.11
2023-05-17T03:56:30.133Z,1014.12
2023-05-17T03:59:38.406Z,1014.16
2023-05-17T04:02:46.233Z,1014.28
2023-05-17T04:05:55.876Z,1014.33
2023-05-17T04:09:03.302Z,1014.30
2023-05-17T04:12:11.340Z,1014.38
2023-05-17T04:15:21.760Z,1014.41
2023-05-17T04:18:29.723Z,1014.41
2023-05-17T04:21:37.898Z,1014.48
2023-05-17T04:24:45.204Z,1014.50
2023-05-17T04:27:55.117Z,1014.49
2023-05-17T04:31:02.375Z,1014.50
2023-05-17T04:34:10.639Z,1014.56
2023-05-17T04:37:19.808Z,1014.54
2023-05-17T04:40:28.210Z,1014.66
2023-05-17T04:43:36.364Z,1014.74
2023-05-17T04:46:45.485Z,1014.73
2023-05-17T04:49:53.653Z,1014.81
2023-05-17T04:53:01.197Z,1014.88
2023-05-17T04:56:10.676Z,1014.90
2023-05-17T04:59:18.693Z,1014.89
2023-05-17T05:02:26.456Z,1014.99
2023-05-17T05:05:37.510Z,1014.99
2023-05-17T05:08:46.579Z,1015.10
2023-05-17T05:11:55.310Z,1015.11
2023-05-17T05:15:02.854Z,1015.12
2023-05-17T05:18:13.093Z,1015.13
2023-05-17T05:21:20.586Z,1015.10
2023-05-17T05:24:28.048Z,1015.14
2023-05-17T05:27:37.073Z,1015.16
2023-05-17T05:30:44.323Z,1015.21
2023-05-17T05:33:52.630Z,1015.27
2023-05-17T05:37:01.619Z,1015.30
2023-05-17T05:40:09.123Z,1015.28
2023-05-17T05:43:16.907Z,1015.35
2023-05-17T05:46:25.469Z,1015.36
2023-05-17T05:49:33.458Z,1015.31
2023-05-17T05:52:41.478Z,1015.40
2023-05-17T05:55:49.699Z,1015.36
2023-05-17T05:58:59.145Z,1015.38
2023-05-17T06:02:06.680Z,1015.37
2023-05-17T06:05:14.235Z,1015.50
2023-05-17T06:08:23.278Z,1015.48
2023-05-17T06:11:30.869Z,1015.57
2023-05-17T06:14:38.608Z,1015.64
2023-05-17T06:17:47.618Z,1015.62
2023-05-17T06:20:55.660Z,1015.67
2023-05-17T06:24:05.027Z,1015.70
2023-05-17T06:27:03.604Z,1015.77
2023-05-17T06:30:11.342Z,1015.77
2023-05-17T06:33:18.898Z,1015.72
2023-05-17T06:36:26.883Z,1015.75
2023-05-17T06:39:36.632Z,1015.86
2023-05-17T06:42:44.160Z,1015.92
2023-05-17T06:45:52.200Z,1015.92
2023-05-17T06:49:00.873Z,1015.91
2023-05-17T06:52:08.595Z,1015.98
2023-05-17T06:55:16.473Z,1016.01
2023-05-17T06:58:26.005Z,1016.04
2023-05-17T07:01:33.976Z,1016.19
2023-05-17T07:04:42.810Z,1016.11
2023-05-17T07:07:52.119Z,1016.19
2023-05-17T07:10:59.970Z,1016.15
2023-05-17T07:14:07.386Z,1016.23
2023-05-17T07:17:15.421Z,1016.30
2023-05-17T07:20:24.005Z,1016.32
2023-05-17T07:23:32.101Z,1016.27
2023-05-17T07:26:39.898Z,1016.31
2023-05-17T07:29:48.866Z,1016.34
2023-05-17T07:32:56.021Z,1016.35
2023-05-17T07:36:04.485Z,1016.53
2023-05-17T07:39:13.646Z,1016.52
2023-05-17T07:42:21.258Z,1016.56
2023-05-17T07:45:30.119Z,1016.57
2023-05-17T07:48:39.358Z,1016.63
2023-05-17T07:51:46.790Z,1016.72
2023-05-17T07:54:54.720Z,1016.69
2023-05-17T07:58:02.396Z,1016.79
2023-05-17T08:01:11.700Z,1016.79
2023-05-17T08:04:19.681Z,1016.78
2023-05-17T08:07:27.141Z,1016.79
2023-05-17T08:10:36.801Z,1016.79
2023-05-17T08:13:45.103Z,1016.84
2023-05-17T08:16:53.048Z,1016.82
2023-05-17T08:20:02.669Z,1016.81
2023-05-17T08:23:10.581Z,1016.79
2023-05-17T08:26:18.206Z,1016.74
2023-05-17T08:29:28.220Z,1016.59
2023-05-17T08:32:36.414Z,1016.69
2023-05-17T08:35:44.525Z,1016.67
2023-05-17T08:38:53.784Z,1016.68
2023-05-17T08:42:02.121Z,1016.73
2023-05-17T08:45:09.505Z,1016.71
2023-05-17T08:48:17.048Z,1016.69
2023-05-17T08:51:26.447Z,1016.90
2023-05-17T08:54:34.264Z,1016.82
2023-05-17T08:57:42.071Z,1016.77
2023-05-17T09:00:51.273Z,1016.77
2023-05-17T09:03:58.807Z,1016.85
2023-05-17T09:07:07.080Z,1016.74
2023-05-17T09:10:15.988Z,1016.79
2023-05-17T09:13:23.942Z,1016.70
2023-05-17T09:16:31.438Z,1016.73
2023-05-17T09:19:41.081Z,1016.75
2023-05-17T09:22:48.974Z,1016.72
2023-05-17T09:25:56.741Z,1016.72
2023-05-17T09:29:04.146Z,1016.65
2023-05-17T09:32:12.981Z,1016.65
2023-05-17T09:35:21.275Z,1016.77
2023-05-17T09:38:28.855Z,1016.70
2023-05-17T09:41:37.850Z,1016.66
2023-05-17T09:44:46.181Z,1016.60
2023-05-17T09:47:53.305Z,1016.71
2023-05-17T09:51:02.954Z,1016.76
2023-05-17T09:54:10.686Z,1016.68
2023-05-17T09:57:18.283Z,1016.76
2023-05-17T10:00:27.484Z,1016.73
2023-05-17T10:03:35.131Z,1016.71
2023-05-17T10:06:48.054Z,1016.73
2023-05-17T10:09:46.491Z,1016.78
2023-05-17T10:12:55.465Z,1016.83
2023-05-17T10:16:03.299Z,1016.65
2023-05-17T10:19:11.716Z,1016.74
2023-05-17T10:22:23.573Z,1016.77
2023-05-17T10:25:31.513Z,1016.74
2023-05-17T10:28:39.008Z,1016.69
2023-05-17T10:31:47.810Z,1016.75
2023-05-17T10:35:09.505Z,1016.71
2023-05-17T10:38:00.906Z,1016.70
2023-05-17T10:41:10.706Z,1016.71
2023-05-17T10:44:17.777Z,1016.61
2023-05-17T10:47:25.829Z,1016.64
2023-05-17T10:50:34.803Z,1016.77
2023-05-17T10:53:42.363Z,1016.76
2023-05-17T10:56:50.535Z,1016.70
2023-05-17T10:59:57.494Z,1016.76
2023-05-17T11:03:06.794Z,1016.74
2023-05-17T11:06:23.527Z,1016.78
2023-05-17T11:09:18.862Z,1016.78
2023-05-17T11:12:27.405Z,1016.85
2023-05-17T11:15:35.628Z,1016.82
2023-05-17T11:18:43.093Z,1016.82
2023-05-17T11:21:52.088Z,1016.69
2023-05-17T11:24:59.606Z,1016.60
2023-05-17T11:28:07.434Z,1016.60
2023-05-17T11:31:16.696Z,1016.78
2023-05-17T11:34:24.926Z,1016.79
2023-05-17T11:37:31.958Z,1016.72
2023-05-17T11:40:40.011Z,1016.71
2023-05-17T11:43:49.035Z,1016.71
2023-05-17T11:46:56.742Z,1016.85
2023-05-17T11:50:04.507Z,1016.90
2023-05-17T11:53:13.445Z,1016.84
2023-05-17T11:56:26.508Z,1016.86
2023-05-17T11:59:25.620Z,1016.71
2023-05-17T12:04:56.406Z,1016.96
2023-05-17T12:08:04.440Z,1016.80
2023-05-17T12:11:12.110Z,1016.86
2023-05-17T12:14:20.688Z,1016.94
2023-05-17T12:17:28.105Z,1016.93
2023-05-17T12:20:35.782Z,1017.06
2023-05-17T12:23:45.036Z,1016.97
2023-05-17T12:26:52.450Z,1017.02
2023-05-17T12:29:59.966Z,1016.99
2023-05-17T12:33:09.663Z,1017.01
2023-05-17T12:36:17.209Z,1017.03
2023-05-17T12:39:25.145Z,1016.96
2023-05-17T12:42:33.732Z,1016.96
2023-05-17T12:45:41.070Z,1016.99
2023-05-17T12:48:50.028Z,1016.89
2023-05-17T12:51:59.140Z,1017.03
2023-05-17T12:55:05.971Z,1017.00
2023-05-17T12:58:13.766Z,1016.96
2023-05-17T13:01:23.112Z,1016.98
2023-05-17T13:04:32.460Z,1017.10
2023-05-17T13:07:40.542Z,1017.07
2023-05-17T13:10:47.449Z,1017.00
2023-05-17T13:13:57.591Z,1016.87
2023-05-17T13:17:04.935Z,1016.97
2023-05-17T13:20:12.755Z,1016.99
2023-05-17T13:23:21.499Z,1016.98
2023-05-17T13:26:29.439Z,1017.03
2023-05-17T13:29:40.247Z,1016.95
2023-05-17T13:32:39.046Z,1016.90
2023-05-17T13:35:46.426Z,1016.85
2023-05-17T13:38:54.787Z,1016.87
2023-05-17T13:42:02.564Z,1016.81
2023-05-17T13:45:12.994Z,1016.67
2023-05-17T13:48:20.543Z,1016.84
2023-05-17T13:51:28.067Z,1016.76
2023-05-17T13:54:37.665Z,1016.84
2023-05-17T13:57:45.527Z,1016.68
2023-05-17T14:00:53.275Z,1016.74
2023-05-17T14:04:02.095Z,1016.70
2023-05-17T14:07:09.441Z,1016.71
2023-05-17T14:10:17.339Z,1016.75
2023-05-17T14:13:25.838Z,1016.59
2023-05-17T14:16:34.164Z,1016.58
2023-05-17T14:19:41.282Z,1016.66
2023-05-17T14:22:48.936Z,1016.63
2023-05-17T14:25:57.948Z,1016.65
2023-05-17T14:29:05.706Z,1016.70
2023-05-17T14:32:13.819Z,1016.70
2023-05-17T14:35:22.962Z,1016.75
2023-05-17T14:38:31.342Z,1016.74
2023-05-17T14:41:39.537Z,1016.75
2023-05-17T14:44:51.146Z,1016.78
2023-05-17T14:47:59.350Z,1016.78
2023-05-17T14:51:08.034Z,1016.73
2023-05-17T14:54:18.328Z,1016.82
2023-05-17T14:57:26.549Z,1016.86
2023-05-17T15:00:34.900Z,1016.94
2023-05-17T15:03:44.633Z,1016.90
2023-05-17T15:06:54.022Z,1016.85
2023-05-17T15:10:02.461Z,1016.86
2023-05-17T15:13:11.326Z,1017.07
2023-05-17T15:16:10.705Z,1017.05
2023-05-17T15:19:19.316Z,1017.09
2023-05-17T15:22:27.083Z,1017.13
2023-05-17T15:25:28.058Z,1017.12
2023-05-17T15:28:36.348Z,1017.03
2023-05-17T15:31:44.604Z,1016.99
2023-05-17T15:34:54.755Z,1017.04
2023-05-17T15:38:03.367Z,1017.09
2023-05-17T15:41:12.155Z,1017.19
2023-05-17T15:44:23.157Z,1017.16
2023-05-17T15:47:42.630Z,1017.17
2023-05-17T15:50:37.178Z,1017.16
2023-05-17T15:53:37.303Z,1017.22
2023-05-17T15:56:47.544Z,1017.17
2023-05-17T15:59:56.279Z,1017.26
2023-05-17T16:03:05.049Z,1017.36
2023-05-17T16:06:15.420Z,1017.31
2023-05-17T16:09:23.403Z,1017.31
2023-05-17T16:12:33.285Z,1017.37
2023-05-17T16:15:43.334Z,1017.39
2023-05-17T16:18:52.025Z,1017.48
2023-05-17T16:22:00.461Z,1017.44
2023-05-17T16:25:10.787Z,1017.61
2023-05-17T16:28:19.114Z,1017.61
2023-05-17T16:31:27.628Z,1017.66
2023-05-17T16:34:35.916Z,1017.65
2023-05-17T16:37:46.608Z,1017.67
2023-05-17T16:40:54.900Z,1017.67
2023-05-17T16:44:03.373Z,1017.62
2023-05-17T16:47:13.361Z,1017.66
2023-05-17T16:50:22.074Z,1017.62
2023-05-17T16:53:30.382Z,1017.70
2023-05-17T16:56:40.661Z,1017.74
2023-05-17T16:59:48.819Z,1017.68
2023-05-17T17:03:35.389Z,1017.71
2023-05-17T17:06:45.668Z,1017.79
2023-05-17T17:09:55.056Z,1017.85
2023-05-17T17:13:04.382Z,1017.96
2023-05-17T17:16:14.622Z,1017.93
2023-05-17T17:19:23.285Z,1017.97
2023-05-17T17:22:32.281Z,1018.03
2023-05-17T17:25:40.871Z,1018.01
2023-05-17T17:28:51.000Z,1018.00
2023-05-17T17:31:59.891Z,1018.02
2023-05-17T17:35:08.723Z,1018.05
2023-05-17T17:38:18.930Z,1018.07
2023-05-17T17:41:27.204Z,1018.00
2023-05-17T17:44:36.035Z,1018.07
2023-05-17T17:47:45.696Z,1018.16
2023-05-17T17:50:54.794Z,1018.15
2023-05-17T17:54:03.117Z,1018.11
2023-05-17T17:57:13.842Z,1018.19
2023-05-17T18:00:22.300Z,1018.14
2023-05-17T18:03:30.631Z,1018.13
2023-05-17T18:06:40.564Z,1018.15
2023-05-17T18:09:48.865Z,1018.14
2023-05-17T18:12:56.647Z,1018.23
2023-05-17T18:16:05.440Z,1018.21
2023-05-17T18:19:16.093Z,1018.24
2023-05-17T18:22:24.982Z,1018.28
2023-05-17T18:25:34.488Z,1018.36
2023-05-17T18:28:43.845Z,1018.38
2023-05-17T18:31:52.219Z,1018.28
2023-05-17T18:35:00.869Z,1018.40
2023-05-17T18:38:10.190Z,1018.45
2023-05-17T18:41:19.555Z,1018.28
2023-05-17T18:44:28.242Z,1018.41
2023-05-17T18:47:38.368Z,1018.45
2023-05-17T18:50:48.233Z,1018.47
2023-05-17T18:53:57.056Z,1018.57
2023-05-17T18:57:05.651Z,1018.52
2023-05-17T19:00:16.074Z,1018.59
2023-05-17T19:03:24.380Z,1018.59
2023-05-17T19:06:32.822Z,1018.72
2023-05-17T19:09:42.586Z,1018.73
2023-05-17T19:12:50.951Z,1018.75
2023-05-17T19:15:59.555Z,1018.77
2023-05-17T19:18:59.106Z,1018.82
2023-05-17T19:22:07.870Z,1018.90
2023-05-17T19:25:17.163Z,1019.01
2023-05-17T19:28:18.390Z,1018.96
2023-05-17T19:31:26.965Z,1019.01
2023-05-17T19:34:35.575Z,1019.04
2023-05-17T19:37:45.021Z,1019.08
2023-05-17T19:40:54.794Z,1019.18
2023-05-17T19:44:02.948Z,1019.15
2023-05-17T19:47:11.278Z,1019.17
2023-05-17T19:50:21.138Z,1019.21
2023-05-17T19:53:40.302Z,1019.28
2023-05-17T19:56:34.914Z,1019.27
2023-05-17T19:59:45.152Z,1019.34
2023-05-17T20:02:54.434Z,1019.33
2023-05-17T20:06:02.763Z,1019.27
2023-05-17T20:09:12.807Z,1019.34
2023-05-17T20:12:21.971Z,1019.40
2023-05-17T20:15:30.842Z,1019.46
2023-05-17T20:18:42.435Z,1019.51
2023-05-17T20:21:51.648Z,1019.57
2023-05-17T20:25:00.044Z,1019.60
2023-05-17T20:28:08.241Z,1019.63
2023-05-17T20:31:18.161Z,1019.64
2023-05-17T20:34:27.723Z,1019.63
2023-05-17T20:37:36.126Z,1019.67
2023-05-17T20:40:46.389Z,1019.68
2023-05-17T20:43:55.352Z,1019.66
2023-05-17T20:47:03.738Z,1019.77
2023-05-17T20:50:14.277Z,1019.76
2023-05-17T20:53:23.512Z,1019.74
2023-05-17T20:56:31.993Z,1019.81
2023-05-17T20:59:42.055Z,1019.76
2023-05-17T21:02:51.015Z,1019.85
2023-05-17T21:05:59.495Z,1019.89
2023-05-17T21:09:07.693Z,1019.87
2023-05-17T21:12:17.584Z,1019.91
2023-05-17T21:15:26.436Z,1020.03
2023-05-17T21:18:34.963Z,1020.03
2023-05-17T21:21:44.820Z,1020.12
2023-05-17T21:24:54.201Z,1020.11
2023-05-17T21:28:02.945Z,1020.16
2023-05-17T21:31:14.112Z,1020.14
2023-05-17T21:34:22.514Z,1020.18
2023-05-17T21:37:31.104Z,1020.24
2023-05-17T21:40:32.657Z,1020.24
2023-05-17T21:43:41.375Z,1020.19
2023-05-17T21:46:50.471Z,1020.28
2023-05-17T21:49:58.880Z,1020.27
2023-05-17T21:53:09.324Z,1020.19
2023-05-17T21:56:17.731Z,1020.24
2023-05-17T21:59:26.295Z,1020.23
2023-05-17T22:02:36.848Z,1020.28
2023-05-17T22:05:44.953Z,1020.26
2023-05-17T22:08:53.766Z,1020.25
2023-05-17T22:12:04.305Z,1020.26
2023-05-17T22:15:12.957Z,1020.29
2023-05-17T22:18:22.376Z,1020.28
2023-05-17T22:21:32.335Z,1020.30
2023-05-17T22:24:41.012Z,1020.29
2023-05-17T22:27:50.105Z,1020.36
2023-05-17T22:31:00.460Z,1020.35
2023-05-17T22:34:08.982Z,1020.31
2023-05-17T22:37:18.097Z,1020.32
2023-05-17T22:40:26.940Z,1020.41
2023-05-17T22:43:37.306Z,1020.41
2023-05-17T22:46:46.837Z,1020.46
2023-05-17T22:49:55.318Z,1020.37
2023-05-17T22:53:05.551Z,1020.39
2023-05-17T22:56:14.768Z,1020.35
2023-05-17T22:59:23.987Z,1020.33
2023-05-17T23:02:33.875Z,1020.35
2023-05-17T23:05:43.180Z,1020.37
2023-05-17T23:08:53.046Z,1020.38
2023-05-17T23:12:02.858Z,1020.41
2023-05-17T23:15:10.817Z,1020.41
2023-05-17T23:18:19.688Z,1020.46
2023-05-17T23:21:28.106Z,1020.35
2023-05-17T23:24:38.493Z,1020.34
2023-05-17T23:27:47.364Z,1020.33
2023-05-17T23:30:55.772Z,1020.33
2023-05-17T23:33:55.782Z,1020.32
2023-05-17T23:37:04.030Z,1020.30
2023-05-17T23:40:13.302Z,1020.27
2023-05-17T23:43:23.239Z,1020.29
2023-05-17T23:46:31.331Z,1020.27
2023-05-17T23:49:40.346Z,1020.29
2023-05-17T23:52:50.407Z,1020.30
2023-05-17T23:55:59.278Z,1020.35
2023-05-17T23:59:08.183Z,1020.28
